Havana, Cuba
Current Conditions -  °F | °C
As of 4:55 AM on Sunday 23 Nov 2014 (Local Time) from MUHA Reporting Station
Few Clouds Few Clouds  
Wind Chill: 73°   Ceiling: Unl
Heat Index: 73°   Visibility: 6mi
Dew Point: 68°   Wind: 7mph
Humidity: 83%   Direction: 110°ESE
Pressure: 29.97"   Gusts: NA
Location:  23.12°N, 82.39°W
Report Text: MUHA 230855Z 11006KT 9000 FEW025 23/20 Q1015
Loading
Personal Weather Stations






























Interactive Weather Map New forecast layout! Learn more

10-Day Weather Forecast

Advertisements
Track Severe Weather on mobile